Terminal Aerodrome Forecast
Issued by NWS North Platte, NE

Home | Current Version | Previous Version | Text Only | Print | Product List | Glossary On
Versions: 1 2 3 4 5 6 7 8 9 10 11 12 13 14 15
942
FTUS43 KLBF 251126
TAFLBF
TAF
KLBF 251126Z 2512/2612 VRB05KT P6SM VCSH BKN080
     FM251500 VRB05KT P6SM SCT080
     FM252000 15007KT P6SM SCT100 SCT250
     FM260300 17004KT P6SM SCT100 BKN250
     FM260900 VRB03KT P6SM SCT100 BKN150=

USA.gov is the U.S. government's official web portal to all federal, state and local government web resources and services.